createdAt,value
2022-12-16T00:01:26.584Z,99654.25
2022-12-16T00:03:54.968Z,99652.72
2022-12-16T00:06:22.932Z,99648.88
2022-12-16T00:08:49.588Z,99655.41
2022-12-16T00:11:17.097Z,99659.54
2022-12-16T00:13:43.733Z,99657.12
2022-12-16T00:16:12.700Z,99662.50
2022-12-16T00:18:39.512Z,99666.42
2022-12-16T00:21:06.355Z,99664.31
2022-12-16T00:23:33.375Z,99661.84
2022-12-16T00:26:00.328Z,99657.88
2022-12-16T00:28:27.184Z,99653.70
2022-12-16T00:30:55.159Z,99662.98
2022-12-16T00:33:22.342Z,99660.50
2022-12-16T00:35:49.049Z,99666.04
2022-12-16T00:38:15.779Z,99662.50
2022-12-16T00:40:42.600Z,99663.92
2022-12-16T00:43:09.215Z,99663.65
2022-12-16T00:45:35.898Z,99662.52
2022-12-16T00:48:02.589Z,99662.80
2022-12-16T00:50:29.246Z,99660.45
2022-12-16T00:52:55.997Z,99660.77
2022-12-16T00:55:22.796Z,99662.02
2022-12-16T00:57:49.364Z,99656.39
2022-12-16T01:00:16.851Z,99646.80
2022-12-16T01:02:44.469Z,99646.10
2022-12-16T01:05:12.514Z,99645.42
2022-12-16T01:07:39.248Z,99648.58
2022-12-16T01:10:06.483Z,99653.42
2022-12-16T01:12:33.862Z,99661.92
2022-12-16T01:15:00.785Z,99661.65
2022-12-16T01:17:27.504Z,99669.11
2022-12-16T01:19:54.157Z,99677.46
2022-12-16T01:22:22.159Z,99664.40
2022-12-16T01:24:48.933Z,99674.59
2022-12-16T01:27:15.617Z,99682.14
2022-12-16T01:29:42.922Z,99687.54
2022-12-16T01:32:12.231Z,99692.10
2022-12-16T01:34:39.090Z,99695.84
2022-12-16T01:37:06.117Z,99703.91
2022-12-16T01:39:32.824Z,99708.62
2022-12-16T01:41:59.506Z,99709.73
2022-12-16T01:44:26.501Z,99712.30
2022-12-16T01:46:59.557Z,99712.42
2022-12-16T01:49:47.362Z,99712.89
2022-12-16T01:52:18.365Z,99715.58
2022-12-16T01:54:48.266Z,99718.25
2022-12-16T01:57:21.496Z,99720.29
2022-12-16T01:59:48.816Z,99722.27
2022-12-16T02:02:15.616Z,99726.09
2022-12-16T02:05:02.273Z,99726.13
2022-12-16T02:07:28.977Z,99724.65
2022-12-16T02:09:55.631Z,99721.42
2022-12-16T02:12:34.505Z,99724.85
2022-12-16T02:15:16.404Z,99722.88
2022-12-16T02:18:08.338Z,99720.11
2022-12-16T02:21:04.732Z,99729.92
2022-12-16T02:23:43.704Z,99731.24
2022-12-16T02:26:19.555Z,99734.34
2022-12-16T02:28:55.338Z,99734.89
2022-12-16T02:31:55.816Z,99736.06
2022-12-16T02:34:42.216Z,99737.64
2022-12-16T02:37:25.512Z,99736.51
2022-12-16T02:39:59.345Z,99731.67
2022-12-16T02:42:35.832Z,99726.66
2022-12-16T02:45:05.714Z,99715.48
2022-12-16T02:47:32.515Z,99718.83
2022-12-16T02:49:59.179Z,99721.92
2022-12-16T02:52:27.617Z,99720.77
2022-12-16T02:54:59.505Z,99714.96
2022-12-16T02:57:49.285Z,99714.84
2022-12-16T03:00:18.637Z,99710.58
2022-12-16T03:02:59.545Z,99713.31
2022-12-16T03:05:48.724Z,99717.20
2022-12-16T03:08:36.924Z,99714.70
2022-12-16T03:11:05.119Z,99711.20
2022-12-16T03:13:52.657Z,99710.93
2022-12-16T03:16:21.047Z,99719.66
2022-12-16T03:18:50.380Z,99716.43
2022-12-16T03:21:18.267Z,99717.77
2022-12-16T03:23:52.518Z,99712.67
2022-12-16T03:26:41.548Z,99707.91
2022-12-16T03:29:13.905Z,99706.10
2022-12-16T03:31:43.859Z,99700.30
2022-12-16T03:34:21.734Z,99700.83
2022-12-16T03:36:51.537Z,99702.54
2022-12-16T03:39:19.191Z,99700.00
2022-12-16T03:41:45.886Z,99695.05
2022-12-16T03:44:13.134Z,99699.48
2022-12-16T03:46:39.930Z,99698.69
2022-12-16T03:49:06.554Z,99696.95
2022-12-16T03:51:33.221Z,99704.06
2022-12-16T03:53:59.987Z,99707.02
2022-12-16T03:56:26.567Z,99717.93
2022-12-16T03:58:53.254Z,99727.28
2022-12-16T04:01:20.123Z,99722.56
2022-12-16T04:03:46.975Z,99722.23
2022-12-16T04:06:18.518Z,99724.20
2022-12-16T04:08:46.697Z,99725.86
2022-12-16T04:11:32.623Z,99730.13
2022-12-16T04:14:18.009Z,99730.83
2022-12-16T04:17:03.452Z,99725.14
2022-12-16T04:19:55.174Z,99720.30
2022-12-16T04:22:51.961Z,99724.39
2022-12-16T04:25:24.190Z,99722.91
2022-12-16T04:27:51.053Z,99726.67
2022-12-16T04:30:22.001Z,99726.75
2022-12-16T04:33:30.467Z,99729.32
2022-12-16T04:36:15.832Z,99733.58
2022-12-16T04:39:01.155Z,99737.60
2022-12-16T04:41:46.697Z,99731.92
2022-12-16T04:44:32.475Z,99734.73
2022-12-16T04:47:18.044Z,99733.65
2022-12-16T04:50:03.365Z,99727.69
2022-12-16T04:52:48.798Z,99730.31
2022-12-16T04:55:34.219Z,99734.02
2022-12-16T04:58:20.684Z,99732.49
2022-12-16T05:01:06.515Z,99737.33
2022-12-16T05:03:51.899Z,99742.55
2022-12-16T05:06:37.150Z,99743.12
2022-12-16T05:09:22.524Z,99736.12
2022-12-16T05:12:07.463Z,99733.60
2022-12-16T05:14:52.638Z,99743.70
2022-12-16T05:17:38.143Z,99745.53
2022-12-16T05:20:23.816Z,99752.89
2022-12-16T05:23:13.584Z,99759.67
2022-12-16T05:25:58.906Z,99758.81
2022-12-16T05:28:44.168Z,99757.14
2022-12-16T05:31:29.589Z,99751.55
2022-12-16T05:34:14.976Z,99742.75
2022-12-16T05:37:00.367Z,99749.77
2022-12-16T05:39:45.869Z,99750.55
2022-12-16T05:42:31.220Z,99752.30
2022-12-16T05:45:16.665Z,99763.63
2022-12-16T05:48:01.676Z,99773.45
2022-12-16T05:50:47.012Z,99780.77
2022-12-16T05:53:32.818Z,99788.84
2022-12-16T05:56:18.325Z,99793.00
2022-12-16T05:59:03.808Z,99803.24
2022-12-16T06:01:49.271Z,99803.56
2022-12-16T06:04:34.762Z,99808.77
2022-12-16T06:07:20.153Z,99811.93
2022-12-16T13:40:43.272Z,99378.13
2022-12-16T13:43:55.816Z,99373.08
2022-12-16T14:05:48.524Z,99358.69
2022-12-16T14:08:35.541Z,99362.38
2022-12-16T14:11:22.619Z,99361.61
2022-12-16T14:14:19.483Z,99358.41
2022-12-16T14:17:13.567Z,99360.88
2022-12-16T14:20:17.970Z,99358.29
2022-12-16T14:23:56.405Z,99349.66
2022-12-16T14:26:42.543Z,99336.42
2022-12-16T14:29:39.838Z,99334.27
2022-12-16T14:32:39.659Z,99315.71
2022-12-16T14:35:54.412Z,99315.91
2022-12-16T14:38:48.674Z,99314.54
2022-12-16T14:41:41.165Z,99321.50
2022-12-16T14:44:43.176Z,99315.60
2022-12-16T14:47:36.389Z,99320.74
2022-12-16T14:50:22.025Z,99322.65
2022-12-16T14:53:07.385Z,99315.75
2022-12-16T14:55:53.258Z,99306.35
2022-12-16T14:58:40.754Z,99299.95
2022-12-16T15:01:42.791Z,99296.92
2022-12-16T15:04:35.211Z,99291.02
2022-12-16T15:07:22.251Z,99289.69
2022-12-16T15:10:10.075Z,99292.82
2022-12-16T15:13:00.334Z,99290.80
2022-12-16T15:15:52.589Z,99293.44
2022-12-16T15:18:42.989Z,99303.71
2022-12-16T15:21:28.590Z,99311.42
2022-12-16T15:24:14.039Z,99321.04
2022-12-16T15:27:06.949Z,99316.92
2022-12-16T15:29:56.147Z,99321.80
2022-12-16T15:32:52.232Z,99311.90
2022-12-16T15:35:55.807Z,99305.31
2022-12-16T15:38:42.545Z,99284.32
2022-12-16T15:41:48.845Z,99282.23
2022-12-16T15:44:44.050Z,99298.66
2022-12-16T15:47:58.674Z,99299.86
2022-12-16T15:50:46.472Z,99303.49
2022-12-16T15:53:49.588Z,99292.23
2022-12-16T15:56:36.887Z,99284.23
2022-12-16T15:59:42.044Z,99273.64
2022-12-16T16:02:47.609Z,99265.58
2022-12-16T16:05:35.602Z,99262.25
2022-12-16T16:08:20.960Z,99263.92
2022-12-16T16:11:06.102Z,99260.10
2022-12-16T16:13:51.306Z,99254.08
2022-12-16T16:16:36.675Z,99251.47
2022-12-16T16:19:22.018Z,99252.30
2022-12-16T16:22:07.153Z,99249.19
2022-12-16T16:24:52.560Z,99240.95
2022-12-16T16:27:37.573Z,99244.06
2022-12-16T16:30:23.556Z,99255.06
2022-12-16T16:33:08.749Z,99262.08
2022-12-16T16:35:54.137Z,99262.25
2022-12-16T16:38:39.560Z,99246.90
2022-12-16T16:41:30.434Z,99237.59
2022-12-16T16:44:19.616Z,99231.52
2022-12-16T16:47:05.403Z,99222.67
2022-12-16T16:49:52.523Z,99216.31
2022-12-16T16:52:39.355Z,99220.86
2022-12-16T16:55:25.231Z,99221.81
2022-12-16T16:58:10.650Z,99213.44
2022-12-16T17:00:56.155Z,99211.17
2022-12-16T17:03:42.242Z,99209.30
2022-12-16T17:06:28.109Z,99209.88
2022-12-16T17:09:13.485Z,99213.10
2022-12-16T17:11:58.815Z,99211.30
2022-12-16T17:14:44.172Z,99209.24
2022-12-16T17:17:29.500Z,99214.02
2022-12-16T17:20:14.707Z,99207.56
2022-12-16T17:23:00.107Z,99210.30
2022-12-16T17:25:45.451Z,99207.10
2022-12-16T17:28:30.831Z,99208.43
2022-12-16T17:31:16.353Z,99207.36
2022-12-16T17:34:01.616Z,99204.19
2022-12-16T17:36:47.121Z,99205.42
2022-12-16T17:39:32.848Z,99198.49
2022-12-16T17:42:18.638Z,99191.63
2022-12-16T17:45:05.261Z,99197.07
2022-12-16T17:47:50.881Z,99201.32
2022-12-16T17:50:36.394Z,99197.19
2022-12-16T17:53:22.219Z,99198.91
2022-12-16T17:56:07.768Z,99196.37
2022-12-16T17:58:54.933Z,99192.79
2022-12-16T18:01:40.485Z,99194.73
2022-12-16T18:04:26.296Z,99191.17
2022-12-16T18:07:12.035Z,99200.48
2022-12-16T18:09:57.381Z,99199.52
2022-12-16T18:12:42.879Z,99198.44
2022-12-16T18:15:28.951Z,99190.41
2022-12-16T18:18:14.483Z,99178.66
2022-12-16T18:21:00.009Z,99178.88
2022-12-16T18:23:48.525Z,99184.40
2022-12-16T18:26:34.105Z,99186.08
2022-12-16T18:29:19.565Z,99172.56
2022-12-16T18:32:06.595Z,99172.48
2022-12-16T18:34:52.030Z,99172.85
2022-12-16T18:37:37.488Z,99169.85
2022-12-16T18:40:24.514Z,99175.78
2022-12-16T18:43:11.178Z,99177.27
2022-12-16T18:45:56.506Z,99167.96
2022-12-16T18:48:42.374Z,99163.67
2022-12-16T18:51:27.917Z,99161.63
2022-12-16T18:54:13.685Z,99156.43
2022-12-16T18:56:59.191Z,99142.79
2022-12-16T18:59:44.821Z,99138.50
2022-12-16T19:02:30.364Z,99134.14
2022-12-16T19:05:16.242Z,99137.25
2022-12-16T19:08:01.838Z,99137.42
2022-12-16T19:11:04.005Z,99137.49
2022-12-16T19:13:49.155Z,99147.30
2022-12-16T19:16:35.104Z,99137.86
2022-12-16T19:19:20.814Z,99153.86
2022-12-16T19:22:06.313Z,99159.94
2022-12-16T19:24:55.046Z,99169.55
2022-12-16T19:27:42.563Z,99168.40
2022-12-16T19:30:28.571Z,99144.54
2022-12-16T19:33:14.054Z,99150.86
2022-12-16T19:35:59.651Z,99149.17
2022-12-16T19:38:45.061Z,99148.50
2022-12-16T19:41:34.282Z,99150.36
2022-12-16T19:44:20.016Z,99163.90
2022-12-16T19:47:05.125Z,99172.45
2022-12-16T19:49:50.544Z,99175.27
2022-12-16T19:52:35.844Z,99176.09
2022-12-16T19:55:21.316Z,99178.13
2022-12-16T19:58:06.559Z,99171.77
2022-12-16T20:00:51.972Z,99164.81
2022-12-16T20:03:37.665Z,99159.77
2022-12-16T20:06:43.839Z,99160.71
2022-12-16T20:09:28.876Z,99150.98
2022-12-16T20:12:14.236Z,99144.27
2022-12-16T20:14:59.312Z,99145.88
2022-12-16T20:17:44.784Z,99146.71
2022-12-16T20:20:30.197Z,99147.91
2022-12-16T20:23:15.610Z,99153.52
2022-12-16T20:26:01.204Z,99147.64
2022-12-16T20:28:46.653Z,99147.39
2022-12-16T20:31:32.250Z,99138.48
2022-12-16T20:34:17.762Z,99137.64
2022-12-16T20:37:03.069Z,99130.69
2022-12-16T20:39:56.532Z,99132.23
2022-12-16T20:42:46.657Z,99132.02
2022-12-16T20:45:54.941Z,99128.05
2022-12-16T20:48:41.316Z,99127.42
2022-12-16T20:51:27.517Z,99119.83
2022-12-16T20:54:12.821Z,99110.27
2022-12-16T20:56:58.381Z,99132.63
2022-12-16T20:59:43.713Z,99148.67
2022-12-16T21:02:33.710Z,99163.83
2022-12-16T21:05:20.253Z,99156.58
2022-12-16T21:08:05.386Z,99160.95
2022-12-16T21:10:51.672Z,99156.83
2022-12-16T21:13:37.414Z,99180.45
2022-12-16T21:16:24.156Z,99174.27
2022-12-16T21:19:09.497Z,99181.55
2022-12-16T21:21:55.040Z,99194.17
2022-12-16T21:24:42.084Z,99199.23
2022-12-16T21:27:27.527Z,99192.91
2022-12-16T21:30:12.831Z,99178.91
2022-12-16T21:32:58.162Z,99198.14
2022-12-16T21:35:43.476Z,99201.65
2022-12-16T21:38:29.370Z,99198.48
2022-12-16T21:41:14.898Z,99198.56
2022-12-16T21:44:00.224Z,99177.54
2022-12-16T21:46:45.631Z,99179.11
2022-12-16T21:49:30.871Z,99179.86
2022-12-16T21:52:16.033Z,99187.04
2022-12-16T21:55:01.344Z,99185.02
2022-12-16T21:57:46.733Z,99191.55
2022-12-16T22:00:32.737Z,99193.06
2022-12-16T22:03:17.984Z,99193.20
2022-12-16T22:06:03.350Z,99190.70
2022-12-16T22:08:48.977Z,99182.90
2022-12-16T22:11:34.304Z,99173.40
2022-12-16T22:14:20.097Z,99166.10
2022-12-16T22:17:05.522Z,99171.17
2022-12-16T22:19:56.221Z,99178.48
2022-12-16T22:22:41.889Z,99161.75
2022-12-16T22:25:27.196Z,99144.86
2022-12-16T22:28:12.678Z,99139.37
2022-12-16T22:30:58.024Z,99134.95
2022-12-16T22:33:43.417Z,99144.94
2022-12-16T22:36:29.502Z,99145.48
2022-12-16T22:39:14.706Z,99154.64
2022-12-16T22:42:00.133Z,99161.42
2022-12-16T22:44:45.411Z,99153.57
2022-12-16T22:47:30.947Z,99157.99
2022-12-16T22:50:16.509Z,99146.10
2022-12-16T22:53:01.943Z,99126.52
2022-12-16T22:55:47.283Z,99122.19
2022-12-16T22:58:32.393Z,99129.41
2022-12-16T23:01:18.367Z,99138.66
2022-12-16T23:04:03.960Z,99141.23
2022-12-16T23:06:49.271Z,99145.11
2022-12-16T23:09:34.767Z,99121.90
2022-12-16T23:12:20.072Z,99130.48
2022-12-16T23:15:05.550Z,99134.33
2022-12-16T23:17:51.001Z,99153.41
2022-12-16T23:20:37.140Z,99169.77
2022-12-16T23:23:22.416Z,99189.23
2022-12-16T23:26:18.118Z,99187.31
2022-12-16T23:29:03.558Z,99179.30
2022-12-16T23:31:49.104Z,99162.59
2022-12-16T23:34:34.402Z,99165.89
2022-12-16T23:37:19.691Z,99167.17
2022-12-16T23:40:05.252Z,99161.14
2022-12-16T23:42:50.793Z,99164.83
2022-12-16T23:45:37.254Z,99171.07
2022-12-16T23:48:24.262Z,99158.67
2022-12-16T23:51:09.585Z,99168.05
2022-12-16T23:53:56.412Z,99172.85
2022-12-16T23:56:46.471Z,99171.55
2022-12-16T23:59:31.830Z,99162.33
